Time;durP1;ratioP1;P1;durP2;ratioP2;P2;SDS_P1;SDS_P2;PMS_P1;PMS_P2;Temp;Humidity;BMP_temperature;BMP_pressure;BME280_temperature;BME280_humidity;BME280_pressure;Samples;Min_cycle;Max_cycle;Signal;HPM_P1;HPM_P2
2022/01/15 00:01:58;;;;;;;1.10;1.10;;;-0.90;98.00;;;;;;5071334;28;20449;-65
2022/01/15 00:04:25;;;;;;;3.30;1.73;;;-0.90;98.00;;;;;;5071209;28;20513;-65
2022/01/15 00:06:52;;;;;;;1.90;1.80;;;-1.00;98.00;;;;;;5069895;28;20486;-65
2022/01/15 00:09:19;;;;;;;7.63;4.00;;;-1.10;98.00;;;;;;5071392;28;20548;-64
2022/01/15 00:11:46;;;;;;;2.83;2.70;;;-1.00;98.00;;;;;;5069664;28;20824;-65
2022/01/15 00:14:25;;;;;;;2.37;2.17;;;-1.00;98.00;;;;;;5069877;28;20457;-65
2022/01/15 00:16:57;;;;;;;2.50;2.27;;;-1.10;98.00;;;;;;5070524;28;20884;-64
2022/01/15 00:19:40;;;;;;;4.22;2.88;;;-1.20;98.00;;;;;;5071279;28;20844;-64
2022/01/15 00:22:07;;;;;;;1.80;1.70;;;-1.20;98.00;;;;;;5070931;28;20214;-64
2022/01/15 00:24:34;;;;;;;1.52;1.42;;;-1.10;98.00;;;;;;5073621;28;20457;-66
2022/01/15 00:27:00;;;;;;;1.97;1.73;;;-1.10;98.00;;;;;;5074887;28;20201;-64
2022/01/15 00:29:29;;;;;;;3.00;1.93;;;-1.10;98.00;;;;;;5074966;28;20552;-66
2022/01/15 00:31:57;;;;;;;5.37;3.67;;;-1.10;98.00;;;;;;5074798;28;20455;-63
2022/01/15 00:34:26;;;;;;;2.63;2.37;;;-1.10;98.00;;;;;;5075068;28;20517;-65
2022/01/15 00:36:54;;;;;;;1.80;1.40;;;-1.10;98.00;;;;;;5074822;28;20564;-64
2022/01/15 00:39:22;;;;;;;2.20;1.50;;;-1.10;98.00;;;;;;5074846;28;20299;-64
2022/01/15 00:41:50;;;;;;;1.50;1.40;;;-1.10;98.00;;;;;;5074637;28;20671;-64
2022/01/15 00:44:17;;;;;;;1.43;1.37;;;-1.00;98.00;;;;;;5074801;28;21108;-63
2022/01/15 00:46:44;;;;;;;3.30;2.40;;;-0.90;98.00;;;;;;5074532;28;20459;-65
2022/01/15 00:49:12;;;;;;;2.97;2.77;;;-1.00;98.00;;;;;;5074499;28;20566;-64
2022/01/15 00:51:41;;;;;;;1.70;1.50;;;-1.00;98.00;;;;;;5074561;28;20535;-64
2022/01/15 00:54:08;;;;;;;1.67;1.57;;;-0.90;98.00;;;;;;5074792;28;20485;-66
2022/01/15 00:56:35;;;;;;;1.97;1.70;;;-1.00;98.00;;;;;;5074551;28;20498;-64
2022/01/15 00:59:02;;;;;;;1.97;1.50;;;-0.90;98.00;;;;;;5073649;28;20571;-64
2022/01/15 01:01:29;;;;;;;2.80;2.37;;;-1.00;98.00;;;;;;5073691;28;20499;-64
2022/01/15 01:03:56;;;;;;;1.45;1.35;;;-1.00;98.00;;;;;;5073821;28;20923;-65
2022/01/15 01:06:23;;;;;;;1.63;1.43;;;-0.90;98.00;;;;;;5074426;28;20694;-65
2022/01/15 01:08:53;;;;;;;1.77;1.67;;;-0.80;98.00;;;;;;5074424;28;20581;-64
2022/01/15 01:11:29;;;;;;;1.80;1.70;;;-1.10;98.00;;;;;;5073178;28;20217;-64
2022/01/15 01:24:53;;;;;;;2.17;1.87;;;-1.00;98.00;;;;;;5074356;28;20625;-64
2022/01/15 01:27:25;;;;;;;1.50;1.47;;;-1.10;98.00;;;;;;5073817;28;20479;-64
2022/01/15 01:30:09;;;;;;;1.77;1.60;;;-1.30;98.00;;;;;;5073657;28;20542;-64
2022/01/15 01:32:47;;;;;;;1.30;1.30;;;-1.40;98.00;;;;;;5072645;28;20983;-64
2022/01/15 01:35:28;;;;;;;8.40;3.90;;;-1.40;98.00;;;;;;5073667;28;20207;-65
2022/01/15 01:37:58;;;;;;;1.17;1.10;;;-1.40;98.00;;;;;;5073574;28;20450;-64
2022/01/15 01:40:37;;;;;;;1.90;1.85;;;-1.30;98.00;;;;;;5073519;28;20461;-64
2022/01/15 01:43:15;;;;;;;2.47;2.28;;;-1.30;98.00;;;;;;5073659;28;20265;-65
2022/01/15 01:45:46;;;;;;;1.53;1.40;;;-1.40;98.00;;;;;;5073426;28;20203;-64
2022/01/15 01:48:13;;;;;;;2.40;2.10;;;-1.40;98.00;;;;;;5073438;28;20491;-66
2022/01/15 01:50:41;;;;;;;3.10;1.50;;;-1.30;98.00;;;;;;5073386;28;20545;-64
2022/01/15 01:53:08;;;;;;;1.40;1.30;;;-1.40;98.00;;;;;;5073377;28;20458;-63
2022/01/15 01:55:36;;;;;;;1.55;1.50;;;-1.50;98.00;;;;;;5073228;28;20512;-64
2022/01/15 01:58:04;;;;;;;7.00;3.93;;;-1.50;98.00;;;;;;5073392;28;20289;-64
2022/01/15 02:00:33;;;;;;;1.80;1.70;;;-1.50;98.00;;;;;;5073309;28;20483;-64
2022/01/15 02:03:01;;;;;;;2.53;1.95;;;-1.60;98.00;;;;;;5073316;28;20258;-64
2022/01/15 02:05:28;;;;;;;3.27;3.07;;;-1.60;98.00;;;;;;5073276;28;20526;-65
2022/01/15 02:07:55;;;;;;;1.43;1.40;;;-1.60;98.00;;;;;;5073024;28;20578;-64
2022/01/15 02:10:22;;;;;;;3.13;2.17;;;-1.70;98.00;;;;;;5073094;28;20865;-63
2022/01/15 02:12:55;;;;;;;1.35;1.35;;;-1.70;98.00;;;;;;5073227;28;20673;-64
2022/01/15 02:15:23;;;;;;;1.98;1.70;;;-1.80;98.00;;;;;;5072883;28;20207;-63
2022/01/15 02:17:52;;;;;;;2.88;1.90;;;-1.70;98.00;;;;;;5073245;28;20247;-65
2022/01/15 02:20:35;;;;;;;3.60;2.05;;;-1.70;98.00;;;;;;5071569;28;20207;-63
2022/01/15 02:25:52;;;;;;;1.67;1.58;;;-1.60;98.00;;;;;;5072898;28;20202;-64
2022/01/15 02:28:23;;;;;;;3.63;1.80;;;-1.60;98.00;;;;;;5072999;28;20318;-63
2022/01/15 02:30:55;;;;;;;1.50;1.40;;;-1.60;98.00;;;;;;5071494;28;20208;-64
2022/01/15 02:33:22;;;;;;;4.03;2.20;;;-1.70;98.00;;;;;;5073185;28;20486;-63
2022/01/15 02:35:51;;;;;;;2.30;2.10;;;-1.70;98.00;;;;;;5072846;28;20504;-64
2022/01/15 02:38:18;;;;;;;1.90;1.65;;;-1.80;98.00;;;;;;5072673;28;20287;-65
2022/01/15 02:40:47;;;;;;;4.18;2.65;;;-1.80;98.00;;;;;;5072481;28;20288;-64
2022/01/15 02:43:21;;;;;;;4.60;1.90;;;-1.90;98.00;;;;;;5072474;28;20232;-64
2022/01/15 02:45:54;;;;;;;1.52;1.42;;;-1.80;98.00;;;;;;5071769;28;20210;-64
2022/01/15 02:48:24;;;;;;;2.28;1.98;;;-1.80;98.00;;;;;;5072214;28;20235;-64
2022/01/15 02:50:54;;;;;;;1.73;1.63;;;-1.70;98.00;;;;;;5072245;28;20786;-64
2022/01/15 02:53:21;;;;;;;1.60;1.58;;;-1.60;98.00;;;;;;5071916;28;20250;-64
2022/01/15 02:55:51;;;;;;;2.00;1.90;;;-1.60;98.00;;;;;;5072153;28;20673;-65
2022/01/15 02:58:19;;;;;;;1.63;1.52;;;-1.70;98.00;;;;;;5072062;28;20290;-65
2022/01/15 03:00:55;;;;;;;1.88;1.77;;;-1.70;98.00;;;;;;5071884;28;20245;-64
2022/01/15 03:03:22;;;;;;;1.20;1.20;;;-1.70;98.00;;;;;;5072073;28;20259;-65
2022/01/15 03:05:49;;;;;;;1.65;1.55;;;-1.70;98.00;;;;;;5071937;28;20260;-64
2022/01/15 03:08:18;;;;;;;1.38;1.33;;;-1.80;98.00;;;;;;5071793;28;20309;-64
2022/01/15 03:10:45;;;;;;;2.10;1.90;;;-1.80;98.00;;;;;;5071991;28;20271;-64
2022/01/15 03:13:14;;;;;;;2.10;1.58;;;-1.80;98.00;;;;;;5071893;28;20211;-63
2022/01/15 03:15:41;;;;;;;1.67;1.58;;;-1.70;98.00;;;;;;5071788;28;20594;-65
2022/01/15 03:18:08;;;;;;;1.75;1.55;;;-1.60;98.00;;;;;;5071899;28;20256;-64
2022/01/15 03:20:35;;;;;;;1.98;1.90;;;-1.70;98.00;;;;;;5071815;28;20789;-63
2022/01/15 03:23:03;;;;;;;1.55;1.25;;;-1.80;98.00;;;;;;5071902;28;20334;-64
2022/01/15 03:25:31;;;;;;;4.82;1.65;;;-1.80;98.00;;;;;;5072041;28;20258;-64
2022/01/15 03:28:01;;;;;;;1.63;1.40;;;-1.80;98.00;;;;;;5071836;28;20295;-65
2022/01/15 03:30:28;;;;;;;3.65;2.17;;;-1.70;98.00;;;;;;5071948;28;20759;-63
2022/01/15 03:32:55;;;;;;;1.17;1.13;;;-1.70;98.00;;;;;;5071921;28;20245;-64
2022/01/15 03:35:23;;;;;;;1.95;1.85;;;-1.60;98.00;;;;;;5071805;28;20207;-65
2022/01/15 03:37:50;;;;;;;1.52;1.45;;;-1.60;98.00;;;;;;5071703;28;20206;-64
2022/01/15 03:40:17;;;;;;;1.92;1.52;;;-1.60;98.00;;;;;;5071722;28;20294;-64
2022/01/15 03:42:46;;;;;;;1.20;1.15;;;-1.60;98.00;;;;;;5071763;28;20256;-65
2022/01/15 03:45:15;;;;;;;6.47;2.93;;;-1.70;98.00;;;;;;5071632;28;20241;-64
2022/01/15 03:47:44;;;;;;;1.65;1.55;;;-1.70;98.00;;;;;;5071433;28;20890;-64
2022/01/15 03:50:12;;;;;;;2.00;1.23;;;-1.80;98.00;;;;;;5071579;28;20324;-65
2022/01/15 03:52:39;;;;;;;1.70;1.60;;;-1.80;98.00;;;;;;5071954;28;20205;-64
2022/01/15 03:55:08;;;;;;;1.95;1.85;;;-1.90;98.00;;;;;;5071672;28;20496;-65
2022/01/15 03:57:36;;;;;;;1.10;1.10;;;-1.80;98.00;;;;;;5070249;28;20211;-64
2022/01/15 04:00:07;;;;;;;3.00;2.17;;;-1.80;98.00;;;;;;5075177;28;20244;-64
2022/01/15 04:02:34;;;;;;;1.73;1.42;;;-1.90;98.00;;;;;;5075836;28;20207;-65
2022/01/15 04:05:01;;;;;;;1.53;1.40;;;-1.80;98.00;;;;;;5075418;28;20234;-64
2022/01/15 04:07:28;;;;;;;1.35;1.33;;;-1.80;98.00;;;;;;5075749;28;20488;-66
2022/01/15 04:09:55;;;;;;;1.30;1.23;;;-2.00;98.00;;;;;;5075161;28;20309;-64
2022/01/15 04:12:21;;;;;;;3.05;2.85;;;-2.00;98.00;;;;;;5075621;28;20241;-64
2022/01/15 04:14:48;;;;;;;1.30;1.20;;;-1.90;98.00;;;;;;5075424;28;20244;-64
2022/01/15 04:17:17;;;;;;;1.98;1.60;;;-1.80;98.00;;;;;;5075110;28;20934;-64
2022/01/15 04:19:44;;;;;;;1.90;1.42;;;-1.80;98.00;;;;;;5075024;28;20208;-66
2022/01/15 04:22:11;;;;;;;1.98;1.40;;;-1.70;98.00;;;;;;5075347;28;20250;-64
2022/01/15 04:24:38;;;;;;;1.50;1.30;;;-1.70;98.00;;;;;;5075045;28;20253;-64
2022/01/15 04:27:05;;;;;;;1.75;1.65;;;-1.70;98.00;;;;;;5075006;28;20239;-64
2022/01/15 04:29:33;;;;;;;6.13;4.00;;;-1.80;98.00;;;;;;5074986;28;20328;-63
2022/01/15 04:32:02;;;;;;;1.50;1.40;;;-1.70;98.00;;;;;;5075061;28;20540;-64
2022/01/15 04:34:31;;;;;;;1.70;1.67;;;-1.70;98.00;;;;;;5074758;28;20242;-63
2022/01/15 04:37:04;;;;;;;2.30;2.10;;;-1.70;98.00;;;;;;5074598;28;20496;-64
2022/01/15 04:39:42;;;;;;;1.48;1.45;;;-1.90;98.00;;;;;;5074925;28;20549;-64
2022/01/15 04:42:09;;;;;;;1.30;1.20;;;-1.90;98.00;;;;;;5074920;28;20207;-63
2022/01/15 04:44:43;;;;;;;1.60;1.50;;;-2.00;98.00;;;;;;5074639;28;20215;-65
2022/01/15 04:47:10;;;;;;;1.60;1.50;;;-2.10;98.00;;;;;;5074714;28;20617;-65
2022/01/15 04:49:40;;;;;;;2.45;2.08;;;-2.00;98.00;;;;;;5074666;28;20260;-64
2022/01/15 04:52:07;;;;;;;3.00;2.60;;;-2.00;98.00;;;;;;5074628;28;20661;-64
2022/01/15 04:54:34;;;;;;;2.00;1.83;;;-2.10;98.00;;;;;;5074449;28;20246;-64
2022/01/15 04:57:02;;;;;;;1.58;1.25;;;-2.20;98.00;;;;;;5074425;28;20199;-64
2022/01/15 04:59:28;;;;;;;1.90;1.80;;;-2.20;98.00;;;;;;5074389;28;20194;-63
2022/01/15 05:01:55;;;;;;;1.65;1.50;;;-2.30;98.00;;;;;;5074455;28;20238;-64
2022/01/15 05:04:22;;;;;;;1.35;1.23;;;-2.30;98.00;;;;;;5074485;28;20556;-64
2022/01/15 05:06:51;;;;;;;1.75;1.65;;;-2.40;98.00;;;;;;5074350;28;20845;-64
2022/01/15 05:09:18;;;;;;;1.52;1.45;;;-2.30;98.00;;;;;;5073711;28;20258;-65
2022/01/15 05:11:47;;;;;;;1.55;1.45;;;-2.20;98.00;;;;;;5074363;28;20206;-64
2022/01/15 05:14:16;;;;;;;1.55;1.45;;;-2.30;98.00;;;;;;5074330;28;20244;-64
2022/01/15 05:16:43;;;;;;;1.92;1.83;;;-2.30;98.00;;;;;;5074404;28;20203;-63
2022/01/15 05:19:10;;;;;;;1.27;1.20;;;-2.30;98.00;;;;;;5074140;28;20238;-65
2022/01/15 05:21:38;;;;;;;1.83;1.70;;;-2.20;98.00;;;;;;5074477;28;20306;-64
2022/01/15 05:24:07;;;;;;;22.77;3.10;;;-2.10;98.00;;;;;;5074512;28;20216;-63
2022/01/15 05:26:35;;;;;;;1.77;1.67;;;-2.20;98.00;;;;;;5074308;28;20250;-63
2022/01/15 05:29:03;;;;;;;1.50;1.40;;;-2.20;98.00;;;;;;5073946;28;20263;-63
2022/01/15 05:31:30;;;;;;;1.75;1.65;;;-2.20;98.00;;;;;;5074127;28;20613;-63
2022/01/15 05:33:57;;;;;;;1.52;1.45;;;-2.20;98.00;;;;;;5073626;28;20300;-64
2022/01/15 05:36:24;;;;;;;2.25;2.05;;;-2.10;98.00;;;;;;5073676;28;20251;-63
2022/01/15 05:38:51;;;;;;;2.15;1.98;;;-2.10;98.00;;;;;;5073847;28;20199;-64
2022/01/15 05:41:20;;;;;;;1.20;1.10;;;-2.30;98.00;;;;;;5073376;28;20217;-63
2022/01/15 05:43:48;;;;;;;1.52;1.45;;;-2.40;98.00;;;;;;5073096;28;20234;-64
2022/01/15 05:46:15;;;;;;;1.20;1.20;;;-2.40;98.00;;;;;;5072693;28;20214;-63
2022/01/15 05:48:42;;;;;;;1.20;1.20;;;-2.40;98.00;;;;;;5073280;28;20234;-63
2022/01/15 05:51:10;;;;;;;2.45;2.30;;;-2.40;98.00;;;;;;5073524;28;20206;-64
2022/01/15 05:53:37;;;;;;;1.85;1.75;;;-2.40;98.00;;;;;;5073434;28;20265;-64
2022/01/15 05:56:04;;;;;;;4.25;2.38;;;-2.40;98.00;;;;;;5073266;28;20279;-66
2022/01/15 05:58:32;;;;;;;4.18;1.92;;;-2.40;98.00;;;;;;5073291;28;20231;-64
2022/01/15 06:00:59;;;;;;;1.40;1.30;;;-2.30;98.00;;;;;;5073117;28;20248;-63
2022/01/15 06:03:26;;;;;;;2.20;1.55;;;-2.40;98.00;;;;;;5073291;28;20246;-63
2022/01/15 06:05:53;;;;;;;1.85;1.58;;;-2.60;98.00;;;;;;5072925;28;20207;-63
2022/01/15 06:08:20;;;;;;;2.40;1.77;;;-2.60;98.00;;;;;;5073215;28;20254;-63
2022/01/15 06:10:48;;;;;;;2.35;1.83;;;-2.60;98.00;;;;;;5073118;28;20222;-63
2022/01/15 06:13:15;;;;;;;3.40;2.47;;;-2.60;98.00;;;;;;5073036;28;20259;-64
2022/01/15 06:16:05;;;;;;;1.45;1.35;;;-2.60;98.00;;;;;;5072952;28;20737;-65
2022/01/15 06:18:33;;;;;;;1.60;1.52;;;-2.60;98.00;;;;;;5072627;28;20806;-63
2022/01/15 06:21:00;;;;;;;2.25;2.05;;;-2.60;98.00;;;;;;5071811;28;20306;-65
2022/01/15 06:23:27;;;;;;;2.83;2.65;;;-2.60;98.00;;;;;;5071618;28;20253;-64
2022/01/15 06:25:55;;;;;;;2.20;2.05;;;-2.60;98.00;;;;;;5072804;28;20298;-66
2022/01/15 06:28:22;;;;;;;2.05;1.80;;;-2.60;98.00;;;;;;5072874;28;20306;-64
2022/01/15 06:30:49;;;;;;;1.70;1.60;;;-2.60;98.00;;;;;;5071586;28;20313;-64
2022/01/15 06:33:18;;;;;;;1.50;1.25;;;-2.60;98.00;;;;;;5072805;28;20235;-63
2022/01/15 06:35:45;;;;;;;1.20;1.20;;;-2.50;98.00;;;;;;5072704;28;20317;-64
2022/01/15 06:38:13;;;;;;;7.63;3.20;;;-2.50;98.00;;;;;;5072637;28;20199;-64
2022/01/15 06:40:40;;;;;;;1.83;1.58;;;-2.60;98.00;;;;;;5072802;28;20199;-63
2022/01/15 06:43:10;;;;;;;3.72;3.58;;;-2.60;98.00;;;;;;5073036;28;20202;-63
2022/01/15 06:45:38;;;;;;;2.38;1.75;;;-2.50;98.00;;;;;;5071296;28;20269;-63
2022/01/15 06:48:06;;;;;;;1.58;1.55;;;-2.60;98.00;;;;;;5072502;28;20267;-65
2022/01/15 06:50:37;;;;;;;1.90;1.80;;;-2.40;98.00;;;;;;5072480;28;20708;-63
2022/01/15 06:53:07;;;;;;;2.85;1.85;;;-2.50;98.00;;;;;;5072399;28;20234;-63
2022/01/15 06:55:34;;;;;;;1.40;1.30;;;-2.60;98.00;;;;;;5072316;28;20294;-62
2022/01/15 06:58:01;;;;;;;3.83;3.00;;;-2.50;98.00;;;;;;5070994;28;20242;-63
2022/01/15 07:00:28;;;;;;;2.60;1.65;;;-2.50;98.00;;;;;;5072174;28;20672;-64
2022/01/15 07:03:00;;;;;;;2.15;1.90;;;-2.40;98.00;;;;;;5070893;28;20204;-63
2022/01/15 07:05:27;;;;;;;1.40;1.30;;;-2.30;98.00;;;;;;5071875;28;20213;-64
2022/01/15 07:07:56;;;;;;;1.20;1.13;;;-2.20;98.00;;;;;;5071923;28;20242;-64
2022/01/15 07:10:23;;;;;;;1.67;1.58;;;-2.30;98.00;;;;;;5071944;28;20657;-64
2022/01/15 07:12:50;;;;;;;3.17;2.22;;;-2.30;98.00;;;;;;5071892;28;20238;-63
2022/01/15 07:15:18;;;;;;;3.08;2.20;;;-2.30;98.00;;;;;;5071916;28;20665;-63
2022/01/15 07:17:46;;;;;;;2.15;1.98;;;-2.20;98.00;;;;;;5072031;28;20200;-64
2022/01/15 07:20:15;;;;;;;1.75;1.70;;;-2.20;98.00;;;;;;5071804;28;20239;-63
2022/01/15 07:22:42;;;;;;;1.40;1.30;;;-2.30;98.00;;;;;;5071842;28;20234;-65
2022/01/15 07:25:12;;;;;;;1.20;1.20;;;-2.40;98.00;;;;;;5071403;28;20603;-63
2022/01/15 07:27:40;;;;;;;1.50;1.42;;;-2.40;98.00;;;;;;5071784;28;20239;-63
2022/01/15 07:30:09;;;;;;;2.08;1.85;;;-2.50;98.00;;;;;;5071684;28;20218;-63
2022/01/15 07:32:37;;;;;;;3.28;2.28;;;-2.60;98.00;;;;;;5071706;28;20198;-63
2022/01/15 07:35:05;;;;;;;2.83;2.63;;;-2.50;98.00;;;;;;5071638;28;20294;-65
2022/01/15 07:37:33;;;;;;;1.10;1.10;;;-2.60;98.00;;;;;;5071957;28;20211;-67
2022/01/15 07:40:00;;;;;;;3.35;3.15;;;-2.60;98.00;;;;;;5071599;28;20802;-66
2022/01/15 07:42:34;;;;;;;1.40;1.30;;;-2.50;98.00;;;;;;5071699;28;20234;-66
2022/01/15 07:45:02;;;;;;;1.63;1.52;;;-2.40;98.00;;;;;;5071818;28;20206;-66
2022/01/15 07:47:29;;;;;;;1.25;1.23;;;-2.30;98.00;;;;;;5071645;28;20203;-64
2022/01/15 07:49:56;;;;;;;1.20;1.20;;;-2.20;98.00;;;;;;5071504;28;20766;-65
2022/01/15 07:52:26;;;;;;;4.03;2.60;;;-2.20;98.00;;;;;;5071740;28;20634;-65
2022/01/15 07:55:00;;;;;;;2.13;1.80;;;-2.20;98.00;;;;;;5071487;28;20560;-64
2022/01/15 07:57:29;;;;;;;1.10;1.10;;;-2.30;98.00;;;;;;5071622;28;20728;-64
2022/01/15 07:59:56;;;;;;;1.45;1.35;;;-2.30;98.00;;;;;;5071378;28;20226;-65
2022/01/15 08:02:24;;;;;;;1.95;1.55;;;-2.20;98.00;;;;;;5071448;28;20214;-64
2022/01/15 08:04:51;;;;;;;3.15;2.10;;;-2.20;98.00;;;;;;5071657;28;20249;-65
2022/01/15 08:07:19;;;;;;;2.70;1.55;;;-2.30;98.00;;;;;;5070302;28;20237;-65
2022/01/15 08:09:46;;;;;;;1.85;1.77;;;-2.40;98.00;;;;;;5071421;28;20222;-64
2022/01/15 08:12:13;;;;;;;2.97;2.38;;;-2.20;98.00;;;;;;5071382;28;20207;-65
2022/01/15 08:14:42;;;;;;;2.45;2.25;;;-2.10;98.00;;;;;;5072010;28;20609;-65
2022/01/15 08:17:09;;;;;;;2.38;1.20;;;-2.10;98.00;;;;;;5070224;28;20199;-63
2022/01/15 08:19:36;;;;;;;1.67;1.58;;;-2.00;98.00;;;;;;5071336;28;20238;-64
2022/01/15 08:22:04;;;;;;;1.33;1.30;;;-2.10;98.00;;;;;;5071379;28;20246;-63
2022/01/15 08:24:31;;;;;;;2.03;1.90;;;-2.10;98.00;;;;;;5069840;28;20229;-64
2022/01/15 08:26:59;;;;;;;1.40;1.35;;;-2.00;98.00;;;;;;5071213;28;20238;-67
2022/01/15 08:29:26;;;;;;;2.58;2.20;;;-2.00;98.00;;;;;;5071123;28;20298;-66
2022/01/15 08:31:56;;;;;;;2.95;1.58;;;-1.90;98.00;;;;;;5070958;28;20251;-65
2022/01/15 08:34:23;;;;;;;1.30;1.27;;;-1.80;98.00;;;;;;5071132;28;20200;-65
2022/01/15 08:36:50;;;;;;;1.30;1.20;;;-1.70;98.00;;;;;;5071060;28;20243;-64
2022/01/15 08:39:18;;;;;;;4.93;2.42;;;-1.60;98.00;;;;;;5053325;28;20204;-63
2022/01/15 08:41:48;;;;;;;1.57;1.50;;;-1.60;98.00;;;;;;5069671;28;20647;-64
2022/01/15 08:44:15;;;;;;;4.32;2.28;;;-1.50;98.00;;;;;;5071429;28;20454;-65
2022/01/15 08:46:42;;;;;;;1.60;1.55;;;-1.40;98.00;;;;;;5074491;28;20284;-65
2022/01/15 08:49:12;;;;;;;2.20;1.50;;;-1.40;98.00;;;;;;5074632;28;20290;-67
2022/01/15 08:51:39;;;;;;;1.58;1.48;;;-1.30;98.00;;;;;;5086164;28;20523;-63
2022/01/15 08:54:09;;;;;;;1.80;1.70;;;-1.30;98.00;;;;;;5094494;28;20764;-64
2022/01/15 08:56:36;;;;;;;2.93;2.40;;;-1.20;98.00;;;;;;5094326;28;20494;-65
2022/01/15 08:59:04;;;;;;;2.33;2.13;;;-1.10;98.00;;;;;;5094440;28;20539;-64
2022/01/15 09:01:31;;;;;;;1.80;1.70;;;-1.00;98.00;;;;;;5092943;28;20990;-65
2022/01/15 09:04:05;;;;;;;5.60;3.20;;;-1.10;98.00;;;;;;5094282;28;20877;-64
2022/01/15 09:06:33;;;;;;;1.50;1.40;;;-1.00;98.00;;;;;;5094159;28;20452;-65
2022/01/15 09:09:01;;;;;;;6.23;2.37;;;-0.90;98.00;;;;;;5094001;28;20456;-65
2022/01/15 09:11:29;;;;;;;2.10;1.65;;;-0.90;98.00;;;;;;5094148;28;20544;-64
2022/01/15 09:13:56;;;;;;;3.87;1.93;;;-0.80;98.00;;;;;;5093038;28;20886;-64
2022/01/15 09:16:23;;;;;;;1.20;1.20;;;-0.60;98.00;;;;;;5092753;28;20499;-65
2022/01/15 09:18:50;;;;;;;2.77;2.57;;;-0.70;98.00;;;;;;5094041;28;20456;-63
2022/01/15 09:21:18;;;;;;;1.93;1.60;;;-0.60;98.00;;;;;;5094195;28;20458;-63
2022/01/15 09:23:46;;;;;;;1.90;1.80;;;-0.50;98.00;;;;;;5094113;28;20961;-65
2022/01/15 09:26:20;;;;;;;2.00;1.80;;;-0.50;98.00;;;;;;5079626;28;20786;-64
2022/01/15 09:31:33;;;;;;;1.77;1.77;;;-0.40;98.00;;;;;;5094051;28;20490;-64
2022/01/15 09:34:00;;;;;;;1.87;1.67;;;-0.30;98.00;;;;;;5094272;28;20848;-64
2022/01/15 09:36:27;;;;;;;1.20;1.20;;;-0.20;98.00;;;;;;5094166;28;20463;-64
2022/01/15 09:38:57;;;;;;;1.50;1.50;;;-0.10;98.00;;;;;;5094155;28;20474;-63
2022/01/15 09:41:25;;;;;;;3.73;1.93;;;0.00;98.00;;;;;;5093984;28;20486;-64
2022/01/15 09:43:52;;;;;;;4.80;4.10;;;0.00;98.00;;;;;;5094163;28;20815;-64
2022/01/15 09:46:20;;;;;;;2.13;1.93;;;0.00;98.00;;;;;;5093714;28;20939;-64
2022/01/15 09:48:49;;;;;;;1.20;1.13;;;0.10;98.00;;;;;;5093775;28;20574;-64
2022/01/15 09:51:17;;;;;;;1.80;1.53;;;0.20;98.00;;;;;;5093736;28;20486;-64
2022/01/15 09:53:43;;;;;;;2.60;2.10;;;0.20;98.00;;;;;;5093711;28;20485;-64
2022/01/15 09:56:12;;;;;;;5.20;2.40;;;0.20;98.00;;;;;;5093109;28;20470;-64
2022/01/15 09:58:40;;;;;;;1.57;1.53;;;0.40;98.00;;;;;;5092318;28;20462;-64
2022/01/15 10:01:07;;;;;;;3.30;2.10;;;0.50;98.00;;;;;;5093421;28;20495;-65
2022/01/15 10:03:34;;;;;;;4.40;1.87;;;0.50;98.00;;;;;;5093466;28;21007;-64
2022/01/15 10:06:04;;;;;;;1.17;1.10;;;0.60;98.00;;;;;;5093227;28;20478;-64
2022/01/15 10:08:32;;;;;;;1.67;1.57;;;0.60;98.00;;;;;;5093576;28;20490;-64
2022/01/15 10:11:01;;;;;;;5.90;3.27;;;0.60;98.00;;;;;;5093234;28;20521;-64
2022/01/15 10:13:29;;;;;;;2.07;1.93;;;0.60;98.00;;;;;;5094816;28;20531;-66
2022/01/15 10:16:14;;;;;;;1.57;1.47;;;0.60;98.00;;;;;;5113321;28;21390;-64
2022/01/15 10:18:44;;;;;;;1.30;1.20;;;0.80;98.00;;;;;;5113749;28;20457;-63
2022/01/15 10:21:14;;;;;;;3.47;3.33;;;0.80;98.00;;;;;;5113707;28;21015;-65
2022/01/15 10:23:50;;;;;;;2.40;2.20;;;0.90;98.00;;;;;;5113673;28;20553;-63
2022/01/15 10:26:20;;;;;;;2.80;2.20;;;0.90;98.00;;;;;;5113230;28;21120;-64
2022/01/15 10:28:56;;;;;;;3.00;2.77;;;0.90;98.00;;;;;;5113465;28;20485;-64
2022/01/15 10:31:27;;;;;;;2.93;2.23;;;1.00;98.00;;;;;;5112215;28;20525;-63
2022/01/15 10:33:56;;;;;;;2.03;1.87;;;1.20;98.00;;;;;;5113444;28;20511;-64
2022/01/15 10:36:24;;;;;;;1.33;1.30;;;1.20;98.00;;;;;;5112568;28;20458;-64
2022/01/15 10:38:52;;;;;;;2.03;1.90;;;1.30;98.00;;;;;;5112538;28;20533;-64
2022/01/15 10:41:33;;;;;;;2.60;1.77;;;1.50;98.00;;;;;;5112459;28;20511;-64
2022/01/15 10:44:03;;;;;;;8.20;3.00;;;1.60;98.00;;;;;;5113068;28;20451;-64
2022/01/15 10:46:34;;;;;;;2.50;2.23;;;1.60;98.00;;;;;;5112981;28;21030;-64
2022/01/15 10:49:22;;;;;;;5.37;2.90;;;1.70;98.00;;;;;;5112718;28;20510;-64
2022/01/15 10:52:09;;;;;;;3.97;3.03;;;1.80;98.00;;;;;;5112184;28;20482;-64
2022/01/15 10:54:36;;;;;;;3.20;3.00;;;2.00;98.00;;;;;;5112287;28;20501;-65
2022/01/15 10:57:09;;;;;;;1.83;1.73;;;2.10;98.00;;;;;;5112042;28;20443;-65
2022/01/15 10:59:38;;;;;;;2.73;2.53;;;2.00;98.00;;;;;;5112086;28;20459;-64
2022/01/15 11:02:18;;;;;;;2.83;2.03;;;2.10;98.00;;;;;;5112073;28;20486;-63
2022/01/15 11:04:45;;;;;;;2.43;2.23;;;2.20;98.00;;;;;;5112033;28;20454;-64
2022/01/15 11:07:12;;;;;;;1.60;1.50;;;2.30;98.00;;;;;;5111865;28;20494;-64
2022/01/15 11:09:39;;;;;;;2.90;1.83;;;2.50;98.00;;;;;;5112802;28;20505;-64
2022/01/15 11:12:09;;;;;;;4.60;3.10;;;2.50;98.00;;;;;;5110701;28;20518;-64
2022/01/15 11:14:36;;;;;;;1.53;1.43;;;2.70;98.00;;;;;;5099317;28;20483;-64
2022/01/15 11:17:05;;;;;;;3.30;1.90;;;2.90;98.00;;;;;;5092079;28;20940;-64
2022/01/15 11:19:33;;;;;;;1.63;1.40;;;3.00;98.00;;;;;;5092151;28;20891;-64
2022/01/15 11:22:01;;;;;;;1.70;1.70;;;3.10;98.00;;;;;;5092029;28;20530;-64
2022/01/15 11:24:28;;;;;;;2.63;2.53;;;3.10;98.00;;;;;;5091533;28;20933;-64
2022/01/15 11:26:58;;;;;;;5.20;2.30;;;3.20;98.00;;;;;;5100013;28;20456;-64
2022/01/15 11:29:27;;;;;;;1.97;1.60;;;3.40;98.00;;;;;;5094339;28;21002;-63
2022/01/15 11:31:57;;;;;;;2.30;1.83;;;3.60;98.00;;;;;;5095851;28;20579;-63
2022/01/15 11:34:27;;;;;;;2.47;2.27;;;3.80;98.00;;;;;;5099432;28;20462;-65
2022/01/15 11:36:54;;;;;;;1.83;1.30;;;3.90;98.00;;;;;;5103912;28;20490;-65
2022/01/15 11:39:23;;;;;;;4.90;2.70;;;4.10;98.00;;;;;;5092957;28;20554;-64
2022/01/15 11:41:53;;;;;;;1.70;1.67;;;4.30;98.00;;;;;;5096187;28;20847;-65
2022/01/15 11:44:38;;;;;;;2.50;1.70;;;4.30;98.00;;;;;;5099497;28;20455;-65
2022/01/15 11:47:15;;;;;;;2.43;2.23;;;4.50;98.00;;;;;;5098307;28;20462;-64
2022/01/15 11:49:44;;;;;;;2.10;1.93;;;4.70;98.00;;;;;;5097753;28;20903;-64
2022/01/15 11:52:35;;;;;;;3.70;2.23;;;4.80;98.00;;;;;;5100020;28;21030;-64
2022/01/15 11:55:29;;;;;;;2.27;2.07;;;5.00;98.00;;;;;;5094232;28;20462;-64
2022/01/15 11:57:58;;;;;;;4.40;1.70;;;5.20;98.00;;;;;;5111951;28;20451;-64
2022/01/15 12:00:31;;;;;;;1.43;1.37;;;5.20;98.00;;;;;;5110600;28;20497;-64
2022/01/15 12:03:12;;;;;;;2.73;2.53;;;5.30;98.00;;;;;;5112089;28;20512;-65
2022/01/15 12:05:42;;;;;;;2.13;1.97;;;5.50;98.00;;;;;;5112070;28;20999;-63
2022/01/15 12:08:32;;;;;;;2.60;1.87;;;5.70;98.00;;;;;;5112138;28;20455;-64
2022/01/15 12:11:04;;;;;;;2.00;1.63;;;5.80;98.00;;;;;;5111778;28;20535;-64
2022/01/15 12:13:43;;;;;;;1.77;1.70;;;6.10;98.00;;;;;;5109714;28;20500;-65
2022/01/15 12:16:24;;;;;;;4.03;2.83;;;6.30;98.00;;;;;;5111949;28;20451;-64
2022/01/15 12:18:53;;;;;;;1.80;1.70;;;6.30;98.00;;;;;;5112105;28;20451;-64
2022/01/15 12:21:55;;;;;;;2.60;2.40;;;6.50;98.00;;;;;;5116033;28;20463;-64
2022/01/15 12:24:53;;;;;;;3.60;2.10;;;6.60;98.00;;;;;;5111668;28;20557;-63
2022/01/15 12:27:25;;;;;;;1.73;1.47;;;6.90;98.00;;;;;;5080001;27;20456;-64
2022/01/15 12:30:02;;;;;;;2.23;1.67;;;7.00;98.00;;;;;;5115532;28;20451;-64
2022/01/15 12:32:31;;;;;;;2.17;2.00;;;7.20;98.00;;;;;;5115896;28;20895;-64
2022/01/15 12:35:03;;;;;;;2.27;1.93;;;7.50;98.00;;;;;;5115409;28;20451;-65
2022/01/15 12:37:31;;;;;;;2.57;2.00;;;7.80;98.00;;;;;;5114272;27;20461;-64
2022/01/15 12:40:03;;;;;;;3.03;1.90;;;8.10;98.00;;;;;;5115447;28;20945;-64
2022/01/15 12:42:33;;;;;;;2.27;2.00;;;8.50;98.00;;;;;;5115265;28;20453;-64
2022/01/15 12:45:00;;;;;;;4.07;2.90;;;8.90;98.00;;;;;;5115191;28;20458;-64
2022/01/15 12:47:42;;;;;;;1.70;1.57;;;9.20;98.00;;;;;;5115205;28;20520;-65
2022/01/15 12:50:09;;;;;;;2.00;1.77;;;9.40;98.00;;;;;;5115226;28;20984;-65
2022/01/15 12:52:38;;;;;;;5.27;2.73;;;9.60;98.00;;;;;;5113957;28;21049;-65
2022/01/15 12:55:06;;;;;;;2.17;1.80;;;9.80;98.00;;;;;;5114992;28;20458;-65
2022/01/15 12:57:45;;;;;;;3.20;2.80;;;10.20;98.00;;;;;;5115024;28;20513;-65
2022/01/15 13:00:15;;;;;;;2.80;2.43;;;10.30;98.00;;;;;;5114892;28;20604;-65
2022/01/15 13:02:42;;;;;;;2.97;2.80;;;10.60;98.00;;;;;;5115053;28;20550;-65
2022/01/15 13:05:12;;;;;;;4.30;2.53;;;10.70;98.00;;;;;;5115070;28;20540;-66
2022/01/15 13:07:54;;;;;;;1.60;1.60;;;10.90;98.00;;;;;;5114918;28;20445;-65
2022/01/15 13:10:48;;;;;;;3.73;1.90;;;10.90;98.00;;;;;;5114989;28;20874;-65
2022/01/15 13:13:23;;;;;;;2.87;2.13;;;11.00;97.80;;;;;;5114762;28;20492;-65
2022/01/15 13:16:00;;;;;;;4.33;2.13;;;11.20;97.80;;;;;;5114732;28;20971;-65
2022/01/15 13:18:37;;;;;;;3.00;2.03;;;11.30;97.40;;;;;;5114936;28;20486;-64
2022/01/15 13:21:06;;;;;;;1.80;1.70;;;11.30;97.20;;;;;;5114738;28;20454;-65